EDDT/TXL METAR and TAF weather

Enter ICAO airport designator
Station Type Date Time Source
EDDT METAR 2020/08/05 16:50 UTC NOAA

EDDT 051650Z 18005KT 110V240 CAVOK 28/07 Q1017 NOSIG


Station Type Date Time Source
EDDT Decoded METAR 2020/08/05 16:50 UTC NOAA

Berlin-Tegel, Germany (EDDT) 52-34N 013-19E 37M
Aug 05, 2020 - 12:50 PM EDT / 2020.08.05 1650 UTC
Wind: from the S (180 degrees) at 6 MPH (5 KT) (direction variable):0
Visibility: greater than 7 mile(s):0
Temperature: 82 F (28 C)
Dew Point: 44 F (7 C)
Relative Humidity: 26%
Pressure (altimeter): 30.03 in. Hg (1017 hPa)
ob: EDDT 051650Z 18005KT 110V240 CAVOK 28/07 Q1017 NOSIG
cycle: 17

Station Type Date Time Source
EDDT TAF 2020/08/05 12:27 UTC NOAA

TAF EDDT 051100Z 0512/0612 21007KT CAVOK
BECMG 0517/0520 13005KT

Example: see airport list